Terminal Aerodrome Forecast
Issued by NWS

Current Version | Previous Version | Text Only | Print | Product List | Glossary On
Versions: 1 2 3 4 5 6 7 8 9 10 11 12 13 14
000
FTUS42 TJSJ 011739
TAFKPK
TAF
TKPK 011739Z 0118/0218 06020KT P6SM FEW021 SCT050
     FM012230 06015KT P6SM SCT018 SCT030
     FM021300 07016G24KT P6SM SCT020
      AMD NOT SKED 0202/0211=

USA.gov is the U.S. government's official web portal to all federal, state and local government web resources and services.